createdAt,value
2024-03-05T00:00:39.103Z,26.90
2024-03-05T00:03:09.898Z,29.00
2024-03-05T00:05:39.604Z,27.20
2024-03-05T00:08:16.292Z,28.20
2024-03-05T00:10:45.640Z,24.80
2024-03-05T00:13:16.822Z,30.50
2024-03-05T00:15:46.983Z,28.20
2024-03-05T00:18:22.481Z,28.70
2024-03-05T00:20:53.942Z,26.70
2024-03-05T00:23:25.984Z,25.90
2024-03-05T00:25:58.284Z,26.60
2024-03-05T00:28:28.058Z,27.70
2024-03-05T00:33:31.205Z,27.20
2024-03-05T00:41:08.250Z,28.70
2024-03-05T00:43:39.942Z,27.60
2024-03-05T00:46:11.648Z,28.80
2024-03-05T00:48:41.292Z,33.40
2024-03-05T00:53:43.318Z,33.00
2024-03-05T00:56:14.904Z,33.00
2024-03-05T00:58:47.358Z,31.60
2024-03-05T01:01:17.658Z,33.80
2024-03-05T01:03:49.283Z,35.40
2024-03-05T01:06:20.238Z,34.90
2024-03-05T01:08:53.324Z,29.10
2024-03-05T01:11:25.462Z,29.20
2024-03-05T01:13:57.460Z,31.90
2024-03-05T01:16:27.816Z,29.00
2024-03-05T01:18:58.184Z,30.10
2024-03-05T01:21:29.820Z,31.60
2024-03-05T01:24:04.571Z,28.90
2024-03-05T01:26:35.981Z,31.10
2024-03-05T01:29:08.821Z,31.10
2024-03-05T01:31:40.280Z,28.60
2024-03-05T01:34:13.618Z,29.70
2024-03-05T01:36:46.122Z,29.50
2024-03-05T01:39:19.897Z,29.00
2024-03-05T01:41:54.028Z,31.40
2024-03-05T01:46:57.931Z,26.60
2024-03-05T01:49:28.344Z,30.70
2024-03-05T01:52:02.915Z,28.30
2024-03-05T01:54:33.966Z,29.50
2024-03-05T01:57:03.330Z,30.20
2024-03-05T01:59:36.478Z,29.60
2024-03-05T02:02:11.787Z,28.70
2024-03-05T02:04:45.880Z,32.30
2024-03-05T02:07:19.916Z,29.60
2024-03-05T02:09:49.917Z,26.90
2024-03-05T02:12:20.413Z,27.70
2024-03-05T02:14:53.135Z,26.30
2024-03-05T02:17:28.436Z,28.50
2024-03-05T02:19:58.454Z,29.90
2024-03-05T02:22:28.531Z,31.50
2024-03-05T02:25:01.092Z,29.10
2024-03-05T02:27:39.936Z,27.60
2024-03-05T02:30:13.961Z,30.00
2024-03-05T02:32:43.691Z,28.50
2024-03-05T02:35:15.817Z,29.30
2024-03-05T02:40:17.321Z,28.80
2024-03-05T02:42:48.718Z,34.10
2024-03-05T02:45:18.935Z,28.50
2024-03-05T02:47:49.753Z,32.60
2024-03-05T02:50:20.775Z,30.50
2024-03-05T02:52:51.515Z,32.40
2024-03-05T02:55:24.455Z,33.10
2024-03-05T02:57:55.283Z,33.80
2024-03-05T03:00:25.873Z,34.20
2024-03-05T03:03:00.186Z,35.30
2024-03-05T03:05:33.040Z,32.60
2024-03-05T03:08:02.457Z,30.80
2024-03-05T03:10:36.103Z,32.10
2024-03-05T03:13:05.924Z,32.50
2024-03-05T03:15:37.593Z,33.80
2024-03-05T03:18:29.227Z,36.50
2024-03-05T03:20:58.763Z,34.30
2024-03-05T03:23:31.292Z,33.60
2024-03-05T03:26:02.982Z,33.80
2024-03-05T03:28:35.292Z,34.50
2024-03-05T03:31:07.646Z,37.40
2024-03-05T03:33:37.841Z,32.90
2024-03-05T03:36:07.993Z,34.70
2024-03-05T03:38:40.972Z,37.40
2024-03-05T03:41:17.935Z,38.40
2024-03-05T03:43:50.620Z,34.30
2024-03-05T03:46:20.345Z,33.40
2024-03-05T03:51:30.777Z,30.90
2024-03-05T03:54:05.887Z,34.70
2024-03-05T03:56:35.760Z,33.00
2024-03-05T03:59:06.329Z,34.30
2024-03-05T04:01:36.857Z,31.70
2024-03-05T04:04:07.212Z,33.40
2024-03-05T04:06:38.953Z,32.70
2024-03-05T04:09:11.266Z,34.00
2024-03-05T04:11:44.206Z,34.60
2024-03-05T04:14:16.774Z,32.20
2024-03-05T04:16:47.262Z,36.50
2024-03-05T04:19:17.646Z,35.10
2024-03-05T04:21:49.963Z,36.00
2024-03-05T04:24:19.711Z,33.90
2024-03-05T04:26:55.260Z,40.90
2024-03-05T04:29:33.505Z,40.00
2024-03-05T04:32:10.521Z,41.30
2024-03-05T04:35:02.104Z,45.90
2024-03-05T04:37:53.080Z,47.30
2024-03-05T04:40:25.492Z,45.70
2024-03-05T04:43:15.006Z,48.00
2024-03-05T04:45:47.264Z,45.90
2024-03-05T04:48:16.979Z,50.30
2024-03-05T04:50:47.666Z,55.20
2024-03-05T04:53:19.907Z,50.70
2024-03-05T04:55:49.519Z,52.00
2024-03-05T05:00:57.184Z,54.50
2024-03-05T05:03:28.377Z,55.60
2024-03-05T05:06:02.419Z,55.70
2024-03-05T05:08:39.095Z,47.70
2024-03-05T05:11:10.128Z,47.10
2024-03-05T05:13:46.227Z,54.60
2024-03-05T05:16:17.613Z,50.10
2024-03-05T05:18:47.428Z,44.90
2024-03-05T05:21:18.272Z,45.40
2024-03-05T05:23:58.995Z,51.00
2024-03-05T05:26:30.577Z,42.60
2024-03-05T05:29:00.798Z,39.10
2024-03-05T05:31:31.432Z,38.00
2024-03-05T05:34:02.700Z,39.80
2024-03-05T05:36:35.387Z,43.90
2024-03-05T05:39:07.930Z,40.60
2024-03-05T05:41:39.751Z,39.30
2024-03-05T05:44:12.467Z,40.60
2024-03-05T05:46:44.358Z,42.90
2024-03-05T05:49:35.377Z,68.30
2024-03-05T05:52:09.620Z,69.70
2024-03-05T05:54:49.416Z,49.20
2024-03-05T05:57:19.485Z,45.30
2024-03-05T05:59:50.402Z,51.30
2024-03-05T06:02:30.669Z,56.10
2024-03-05T06:05:05.226Z,48.40
2024-03-05T06:07:42.171Z,43.70
2024-03-05T06:10:13.983Z,43.30
2024-03-05T06:12:53.559Z,38.00
2024-03-05T06:15:25.578Z,41.60
2024-03-05T06:17:57.499Z,40.60
2024-03-05T06:20:26.222Z,54.90
2024-03-05T06:23:00.083Z,47.90
2024-03-05T06:25:32.067Z,44.10
2024-03-05T06:28:03.951Z,40.10
2024-03-05T06:30:35.723Z,40.60
2024-03-05T06:33:11.716Z,39.40
2024-03-05T06:35:41.905Z,40.40
2024-03-05T06:38:10.271Z,58.70
2024-03-05T06:40:40.458Z,61.70
2024-03-05T06:43:31.060Z,59.20
2024-03-05T06:46:07.121Z,56.60
2024-03-05T06:48:44.209Z,49.90
2024-03-05T06:51:37.206Z,39.90
2024-03-05T06:54:29.048Z,40.70
2024-03-05T06:57:00.831Z,32.80
2024-03-05T06:59:31.234Z,37.90
2024-03-05T07:02:02.061Z,33.60
2024-03-05T07:04:31.543Z,33.30
2024-03-05T07:07:02.657Z,32.50
2024-03-05T07:09:33.511Z,34.60
2024-03-05T07:12:09.227Z,34.20
2024-03-05T07:14:40.997Z,36.00
2024-03-05T07:17:12.263Z,34.10
2024-03-05T07:19:44.612Z,35.30
2024-03-05T07:22:15.451Z,35.00
2024-03-05T07:24:48.018Z,36.90
2024-03-05T07:27:17.639Z,37.10
2024-03-05T07:29:48.333Z,35.40
2024-03-05T07:32:20.030Z,35.00
2024-03-05T07:34:49.579Z,36.00
2024-03-05T07:37:19.826Z,31.00
2024-03-05T07:39:51.581Z,38.40
2024-03-05T07:42:24.995Z,33.80
2024-03-05T07:44:57.737Z,34.20
2024-03-05T07:47:34.418Z,32.80
2024-03-05T07:50:07.045Z,32.30
2024-03-05T07:52:38.696Z,31.40
2024-03-05T07:55:21.634Z,31.90
2024-03-05T07:58:12.436Z,34.20
2024-03-05T08:00:44.417Z,31.50
2024-03-05T08:03:13.917Z,31.10
2024-03-05T08:05:44.653Z,30.50
2024-03-05T08:08:16.245Z,31.60
2024-03-05T08:10:58.266Z,28.30
2024-03-05T08:13:35.389Z,29.40
2024-03-05T08:16:06.176Z,30.70
2024-03-05T08:18:37.670Z,31.90
2024-03-05T08:21:09.335Z,31.70
2024-03-05T08:26:12.940Z,27.90
2024-03-05T08:28:47.697Z,33.50
2024-03-05T08:31:18.428Z,33.60
2024-03-05T08:33:48.611Z,29.40
2024-03-05T08:36:20.987Z,29.00
2024-03-05T08:38:58.265Z,26.30
2024-03-05T08:41:28.785Z,26.20
2024-03-05T08:43:59.497Z,25.30
2024-03-05T08:46:29.098Z,26.60
2024-03-05T08:49:00.684Z,26.30
2024-03-05T08:51:33.132Z,26.10
2024-03-05T08:54:04.810Z,25.60
2024-03-05T08:56:48.757Z,24.00
2024-03-05T08:59:20.184Z,25.70
2024-03-05T09:01:53.970Z,30.90
2024-03-05T09:04:22.880Z,26.30
2024-03-05T09:06:52.328Z,24.40
2024-03-05T09:11:54.233Z,25.80
2024-03-05T09:14:24.727Z,25.70
2024-03-05T09:16:56.749Z,27.40
2024-03-05T09:19:29.335Z,25.60
2024-03-05T09:22:05.815Z,27.90
2024-03-05T09:24:39.708Z,24.90
2024-03-05T09:27:11.879Z,25.70
2024-03-05T09:29:44.883Z,24.60
2024-03-05T09:32:26.159Z,25.70
2024-03-05T09:35:01.081Z,26.10
2024-03-05T09:37:38.747Z,22.30
2024-03-05T09:40:22.456Z,25.40
2024-03-05T09:42:59.897Z,26.70
2024-03-05T09:45:32.311Z,23.40
2024-03-05T09:48:08.294Z,22.80
2024-03-05T09:50:40.020Z,24.00
2024-03-05T09:53:15.075Z,23.40
2024-03-05T09:55:52.274Z,24.00
2024-03-05T09:58:37.752Z,20.30
2024-03-05T10:01:10.370Z,22.20
2024-03-05T10:03:46.322Z,22.50
2024-03-05T10:06:20.324Z,22.00
2024-03-05T10:08:51.972Z,24.40
2024-03-05T10:11:25.439Z,22.40
2024-03-05T10:13:55.809Z,21.80
2024-03-05T10:16:27.788Z,22.10
2024-03-05T10:18:56.823Z,22.80
2024-03-05T10:21:34.978Z,23.10
2024-03-05T10:24:07.231Z,22.00
2024-03-05T10:26:40.484Z,23.20
2024-03-05T10:29:13.940Z,22.10
2024-03-05T10:31:46.406Z,22.80
2024-03-05T10:34:18.686Z,26.50
2024-03-05T10:36:50.197Z,24.20
2024-03-05T10:39:20.568Z,25.00
2024-03-05T10:41:54.031Z,22.30
2024-03-05T10:44:23.771Z,22.30
2024-03-05T10:46:54.999Z,23.00
2024-03-05T10:49:26.880Z,22.20
2024-03-05T10:52:00.437Z,20.50
2024-03-05T10:54:32.018Z,22.30
2024-03-05T10:59:49.370Z,19.10
2024-03-05T11:02:18.173Z,20.70
2024-03-05T11:04:57.925Z,19.40
2024-03-05T11:07:31.064Z,20.70
2024-03-05T11:10:03.056Z,20.40
2024-03-05T11:12:47.732Z,20.20
2024-03-05T11:15:17.563Z,21.00
2024-03-05T11:17:58.035Z,20.70
2024-03-05T11:21:13.651Z,21.20
2024-03-05T11:24:00.874Z,17.80
2024-03-05T11:26:33.914Z,21.70
2024-03-05T11:29:19.108Z,19.70
2024-03-05T11:31:52.782Z,20.90
2024-03-05T11:34:23.670Z,22.50
2024-03-05T11:37:13.200Z,18.10
2024-03-05T11:39:47.177Z,19.00
2024-03-05T11:42:21.740Z,18.50
2024-03-05T11:44:55.128Z,17.70
2024-03-05T11:47:26.945Z,16.00
2024-03-05T11:50:05.130Z,21.50
2024-03-05T11:52:36.351Z,14.50
2024-03-05T11:55:12.145Z,14.10
2024-03-05T11:57:43.456Z,14.80
2024-03-05T12:00:17.910Z,13.20
2024-03-05T12:02:59.361Z,14.90
2024-03-05T12:05:32.013Z,13.20
2024-03-05T12:08:10.401Z,13.50
2024-03-05T12:10:42.192Z,14.30
2024-03-05T12:13:20.595Z,15.90
2024-03-05T12:15:52.291Z,13.80
2024-03-05T12:18:23.103Z,15.10
2024-03-05T12:20:57.218Z,13.70
2024-03-05T12:23:41.301Z,18.30
2024-03-05T12:26:12.729Z,16.40
2024-03-05T12:28:42.726Z,16.90
2024-03-05T12:31:13.183Z,17.10
2024-03-05T12:33:45.994Z,18.30
2024-03-05T12:36:17.560Z,17.00
2024-03-05T12:38:48.068Z,14.20
2024-03-05T12:41:29.509Z,12.50
2024-03-05T12:44:01.094Z,12.10
2024-03-05T12:46:38.806Z,11.40
2024-03-05T12:49:22.849Z,11.60
2024-03-05T12:52:03.821Z,12.30
2024-03-05T12:55:04.967Z,13.80
2024-03-05T12:57:38.972Z,12.40
2024-03-05T13:00:14.877Z,10.30
2024-03-05T13:02:45.060Z,12.30
2024-03-05T13:05:14.612Z,10.80
2024-03-05T13:07:47.473Z,13.60
2024-03-05T13:10:16.944Z,12.60
2024-03-05T13:12:48.697Z,13.20
2024-03-05T13:15:20.143Z,14.40
2024-03-05T13:17:49.404Z,12.20
2024-03-05T13:20:21.064Z,11.50
2024-03-05T13:22:55.797Z,13.60
2024-03-05T13:25:27.396Z,11.80
2024-03-05T13:28:02.074Z,12.80
2024-03-05T13:30:34.598Z,12.70
2024-03-05T13:33:06.424Z,12.50
2024-03-05T13:35:37.262Z,11.90
2024-03-05T13:38:09.524Z,12.10
2024-03-05T13:40:39.143Z,13.20
2024-03-05T13:43:12.793Z,13.70
2024-03-05T13:45:42.112Z,13.00
2024-03-05T13:48:13.004Z,11.10
2024-03-05T13:51:11.851Z,9.90
2024-03-05T13:53:44.161Z,13.00
2024-03-05T13:56:47.420Z,11.60
2024-03-05T13:59:28.572Z,12.90
2024-03-05T14:02:00.929Z,13.20
2024-03-05T14:04:32.563Z,11.80
2024-03-05T14:07:08.180Z,15.90
2024-03-05T14:09:41.789Z,13.70
2024-03-05T14:18:23.191Z,14.20
2024-03-05T14:21:14.625Z,15.20
2024-03-05T14:23:44.301Z,15.30
2024-03-05T14:26:19.236Z,15.20
2024-03-05T14:28:51.091Z,17.00
2024-03-05T14:31:21.114Z,17.70
2024-03-05T14:33:54.344Z,18.70
2024-03-05T14:36:27.263Z,14.70
2024-03-05T14:38:58.963Z,15.00
2024-03-05T14:41:28.905Z,18.30
2024-03-05T14:44:11.971Z,15.10
2024-03-05T14:46:48.831Z,16.30
2024-03-05T14:49:22.514Z,15.20
2024-03-05T14:51:55.964Z,12.40
2024-03-05T14:54:25.503Z,12.70
2024-03-05T14:56:54.737Z,10.50
2024-03-05T14:59:25.270Z,14.20
2024-03-05T15:01:56.308Z,12.60
2024-03-05T15:04:29.866Z,13.50
2024-03-05T15:06:59.824Z,14.80
2024-03-05T15:09:35.043Z,11.30
2024-03-05T15:12:06.371Z,12.90
2024-03-05T15:14:35.661Z,9.90
2024-03-05T15:17:10.851Z,9.00
2024-03-05T15:19:50.193Z,8.30
2024-03-05T15:22:27.305Z,7.10
2024-03-05T15:24:56.745Z,7.30
2024-03-05T15:27:31.366Z,6.00
2024-03-05T15:30:02.037Z,8.20
2024-03-05T15:32:33.842Z,5.50
2024-03-05T15:35:06.296Z,7.20
2024-03-05T15:37:38.023Z,7.20
2024-03-05T15:40:18.584Z,9.50
2024-03-05T15:42:53.999Z,8.40
2024-03-05T15:45:27.256Z,11.10
2024-03-05T15:47:57.224Z,12.60
2024-03-05T15:50:31.876Z,11.30
2024-03-05T15:53:04.554Z,12.20
2024-03-05T15:55:46.328Z,15.40
2024-03-05T15:58:42.493Z,14.10
2024-03-05T16:01:27.779Z,15.80
2024-03-05T16:04:15.331Z,16.00
2024-03-05T16:06:53.381Z,13.30
2024-03-05T16:09:28.654Z,13.00
2024-03-05T16:11:59.639Z,16.00
2024-03-05T16:14:48.267Z,14.70
2024-03-05T16:17:19.371Z,12.60
2024-03-05T16:19:55.534Z,14.80
2024-03-05T16:22:24.981Z,24.20
2024-03-05T16:24:57.334Z,19.70
2024-03-05T16:27:28.795Z,21.40
2024-03-05T16:29:58.088Z,21.80
2024-03-05T16:32:27.790Z,23.10
2024-03-05T16:35:01.196Z,22.60
2024-03-05T16:37:37.863Z,23.80
2024-03-05T16:40:29.274Z,26.50
2024-03-05T16:43:11.479Z,26.00
2024-03-05T16:45:41.922Z,23.20
2024-03-05T16:50:46.706Z,30.00
2024-03-05T16:53:16.581Z,29.70
2024-03-05T16:55:50.629Z,30.50
2024-03-05T16:58:23.261Z,38.80
2024-03-05T17:00:54.083Z,23.30
2024-03-05T17:03:31.638Z,35.20
2024-03-05T17:06:05.680Z,31.10
2024-03-05T17:08:36.581Z,31.10
2024-03-05T17:11:18.259Z,30.60
2024-03-05T17:13:52.426Z,29.90
2024-03-05T17:16:26.698Z,25.90
2024-03-05T17:18:56.852Z,26.90
2024-03-05T17:21:29.234Z,25.50
2024-03-05T17:24:01.122Z,29.80
2024-03-05T17:26:33.052Z,27.20
2024-03-05T17:29:12.588Z,27.40
2024-03-05T17:31:50.960Z,26.70
2024-03-05T17:34:22.787Z,28.00
2024-03-05T17:36:52.096Z,26.20
2024-03-05T17:39:26.618Z,28.30
2024-03-05T17:42:00.484Z,30.70
2024-03-05T17:44:40.241Z,27.30
2024-03-05T17:47:13.359Z,27.90
2024-03-05T17:49:55.694Z,30.90
2024-03-05T17:52:31.368Z,29.10
2024-03-05T17:55:06.159Z,30.70
2024-03-05T17:57:34.625Z,30.80
2024-03-05T18:00:28.311Z,31.20
2024-03-05T18:03:03.435Z,55.60
2024-03-05T18:05:36.774Z,78.10
2024-03-05T18:08:11.959Z,85.20
2024-03-05T18:10:45.641Z,56.50
2024-03-05T18:13:17.050Z,41.90
2024-03-05T18:15:50.720Z,38.80
2024-03-05T18:18:31.691Z,44.00
2024-03-05T18:21:03.694Z,49.60
2024-03-05T18:23:39.641Z,39.40
2024-03-05T18:26:13.765Z,48.90
2024-03-05T18:28:44.814Z,54.90
2024-03-05T18:31:17.561Z,37.00
2024-03-05T18:33:56.319Z,32.40
2024-03-05T18:36:30.042Z,32.60
2024-03-05T18:39:09.796Z,29.20
2024-03-05T18:41:40.216Z,29.60
2024-03-05T18:44:16.104Z,29.60
2024-03-05T18:46:48.714Z,29.40
2024-03-05T18:49:24.162Z,29.00
2024-03-05T18:52:07.583Z,28.60
2024-03-05T18:54:37.452Z,31.30
2024-03-05T18:57:09.504Z,32.10
2024-03-05T18:59:41.663Z,35.50
2024-03-05T19:02:13.474Z,32.60
2024-03-05T19:04:44.078Z,35.10
2024-03-05T19:07:14.481Z,32.50
2024-03-05T19:09:50.837Z,29.10
2024-03-05T19:12:30.127Z,31.00
2024-03-05T19:15:06.083Z,32.20
2024-03-05T19:17:35.663Z,31.60
2024-03-05T19:20:11.502Z,28.80
2024-03-05T19:22:45.619Z,29.80
2024-03-05T19:25:20.264Z,33.60
2024-03-05T19:28:01.713Z,29.00
2024-03-05T19:30:34.086Z,31.00
2024-03-05T19:33:06.826Z,29.30
2024-03-05T19:35:46.134Z,32.00
2024-03-05T19:38:26.750Z,31.70
2024-03-05T19:40:58.908Z,31.70
2024-03-05T19:43:30.903Z,33.60
2024-03-05T19:46:09.708Z,34.00
2024-03-05T19:48:39.657Z,35.10
2024-03-05T19:51:14.167Z,55.10
2024-03-05T19:53:44.319Z,56.50
2024-03-05T19:58:44.774Z,41.40
2024-03-05T20:04:57.385Z,35.60
2024-03-05T20:07:40.418Z,33.00
2024-03-05T20:10:23.636Z,28.40
2024-03-05T20:12:57.647Z,33.50
2024-03-05T20:15:29.184Z,30.50
2024-03-05T20:17:58.600Z,29.00
2024-03-05T20:23:14.102Z,30.10
2024-03-05T20:25:48.232Z,28.30
2024-03-05T20:28:19.621Z,29.90
2024-03-05T20:30:52.932Z,34.30
2024-03-05T20:33:41.812Z,32.20
2024-03-05T20:36:15.635Z,31.60
2024-03-05T20:39:08.799Z,32.10
2024-03-05T20:41:45.684Z,30.80
2024-03-05T20:44:23.131Z,30.70
2024-03-05T20:47:01.975Z,30.50
2024-03-05T20:49:53.569Z,34.50
2024-03-05T20:52:32.717Z,31.10
2024-03-05T20:55:21.224Z,32.20
2024-03-05T20:57:53.889Z,32.70
2024-03-05T21:00:27.276Z,27.30
2024-03-05T21:03:00.187Z,29.40
2024-03-05T21:05:31.626Z,29.00
2024-03-05T21:08:03.379Z,34.90
2024-03-05T21:10:34.197Z,49.60
2024-03-05T21:13:10.801Z,82.90
2024-03-05T21:15:42.344Z,70.30
2024-03-05T21:18:15.196Z,41.60
2024-03-05T21:20:51.408Z,42.10
2024-03-05T21:23:24.436Z,35.20
2024-03-05T21:26:14.068Z,45.40
2024-03-05T21:28:58.230Z,49.20
2024-03-05T21:31:36.660Z,55.10
2024-03-05T21:34:07.084Z,46.90
2024-03-05T21:36:51.478Z,32.30
2024-03-05T21:39:38.989Z,34.90
2024-03-05T21:42:10.565Z,33.40
2024-03-05T21:45:00.112Z,35.00
2024-03-05T21:47:35.060Z,30.50
2024-03-05T21:50:13.142Z,31.30
2024-03-05T21:52:53.068Z,36.10
2024-03-05T21:55:24.984Z,36.60
2024-03-05T21:57:58.149Z,38.70
2024-03-05T22:00:37.029Z,39.20
2024-03-05T22:03:06.755Z,34.70
2024-03-05T22:05:41.853Z,34.60
2024-03-05T22:08:25.111Z,32.50
2024-03-05T22:10:55.545Z,37.60
2024-03-05T22:13:24.760Z,36.40
2024-03-05T22:15:57.092Z,32.10
2024-03-05T22:18:29.578Z,31.30
2024-03-05T22:21:06.256Z,30.60
2024-03-05T22:24:00.691Z,28.80
2024-03-05T22:26:49.256Z,30.90
2024-03-05T22:29:27.033Z,33.30
2024-03-05T22:31:57.697Z,32.90
2024-03-05T22:34:33.431Z,30.20
2024-03-05T22:37:30.649Z,31.00
2024-03-05T22:40:10.299Z,32.40
2024-03-05T22:42:40.968Z,29.60
2024-03-05T22:45:19.218Z,31.50
2024-03-05T22:48:03.529Z,26.60
2024-03-05T22:50:58.992Z,29.10
2024-03-05T22:53:49.394Z,28.00
2024-03-05T22:56:25.190Z,24.60
2024-03-05T22:58:57.021Z,26.10
2024-03-05T23:01:37.453Z,27.40
2024-03-05T23:04:07.953Z,28.10
2024-03-05T23:06:37.738Z,29.60
2024-03-05T23:09:09.050Z,25.50
2024-03-05T23:11:43.409Z,25.30
2024-03-05T23:14:19.838Z,25.50
2024-03-05T23:16:52.709Z,23.80
2024-03-05T23:19:24.080Z,24.00
2024-03-05T23:21:54.613Z,21.20
2024-03-05T23:24:24.685Z,20.20
2024-03-05T23:27:00.859Z,25.60
2024-03-05T23:29:35.415Z,24.90
2024-03-05T23:32:05.248Z,21.70
2024-03-05T23:34:38.749Z,21.40
2024-03-05T23:37:15.391Z,19.10
2024-03-05T23:39:49.075Z,20.90
2024-03-05T23:42:20.341Z,19.70
2024-03-05T23:44:50.042Z,22.10
2024-03-05T23:47:26.705Z,20.60
2024-03-05T23:50:02.762Z,20.50
2024-03-05T23:52:35.131Z,20.00
2024-03-05T23:55:07.481Z,19.70
2024-03-05T23:57:45.950Z,20.20
